sensor_id;sensor_type;location;lat;lon;timestamp;P1;durP1;ratioP1;P2;durP2;ratioP2
5303;SDS011;2674;49.722;10.892;2023-05-10T00:00:20;9.57;;;8.50;;
5303;SDS011;2674;49.722;10.892;2023-05-10T00:02:47;11.50;;;8.20;;
5303;SDS011;2674;49.722;10.892;2023-05-10T00:05:13;8.30;;;7.40;;
5303;SDS011;2674;49.722;10.892;2023-05-10T00:07:39;8.97;;;8.07;;
5303;SDS011;2674;49.722;10.892;2023-05-10T00:10:05;10.47;;;7.63;;
5303;SDS011;2674;49.722;10.892;2023-05-10T00:12:31;10.13;;;8.27;;
5303;SDS011;2674;49.722;10.892;2023-05-10T00:14:57;11.53;;;7.60;;
5303;SDS011;2674;49.722;10.892;2023-05-10T00:17:23;9.73;;;7.47;;
5303;SDS011;2674;49.722;10.892;2023-05-10T00:19:49;9.03;;;7.67;;
5303;SDS011;2674;49.722;10.892;2023-05-10T00:22:15;8.40;;;7.07;;
5303;SDS011;2674;49.722;10.892;2023-05-10T00:24:41;8.13;;;6.53;;
5303;SDS011;2674;49.722;10.892;2023-05-10T00:27:06;6.60;;;6.00;;
5303;SDS011;2674;49.722;10.892;2023-05-10T00:29:32;6.67;;;5.97;;
5303;SDS011;2674;49.722;10.892;2023-05-10T00:31:58;11.60;;;6.27;;
5303;SDS011;2674;49.722;10.892;2023-05-10T00:34:24;9.07;;;6.10;;
5303;SDS011;2674;49.722;10.892;2023-05-10T00:36:50;7.67;;;6.37;;
5303;SDS011;2674;49.722;10.892;2023-05-10T00:39:16;8.20;;;6.93;;
5303;SDS011;2674;49.722;10.892;2023-05-10T00:41:42;7.90;;;6.87;;
5303;SDS011;2674;49.722;10.892;2023-05-10T00:44:07;7.27;;;6.50;;
5303;SDS011;2674;49.722;10.892;2023-05-10T00:46:33;6.50;;;5.77;;
5303;SDS011;2674;49.722;10.892;2023-05-10T00:48:59;7.87;;;6.90;;
5303;SDS011;2674;49.722;10.892;2023-05-10T00:51:26;10.80;;;7.03;;
5303;SDS011;2674;49.722;10.892;2023-05-10T00:53:51;12.70;;;7.90;;
5303;SDS011;2674;49.722;10.892;2023-05-10T00:56:17;9.57;;;7.40;;
5303;SDS011;2674;49.722;10.892;2023-05-10T00:58:45;8.97;;;7.23;;
5303;SDS011;2674;49.722;10.892;2023-05-10T01:01:11;10.20;;;8.30;;
5303;SDS011;2674;49.722;10.892;2023-05-10T01:03:37;13.87;;;10.30;;
5303;SDS011;2674;49.722;10.892;2023-05-10T01:06:04;8.83;;;7.03;;
5303;SDS011;2674;49.722;10.892;2023-05-10T01:08:31;10.53;;;7.13;;
5303;SDS011;2674;49.722;10.892;2023-05-10T01:10:57;12.07;;;8.70;;
5303;SDS011;2674;49.722;10.892;2023-05-10T01:13:29;10.10;;;8.50;;
5303;SDS011;2674;49.722;10.892;2023-05-10T01:15:57;9.50;;;7.80;;
5303;SDS011;2674;49.722;10.892;2023-05-10T01:18:23;8.83;;;7.53;;
5303;SDS011;2674;49.722;10.892;2023-05-10T01:20:54;10.30;;;8.83;;
5303;SDS011;2674;49.722;10.892;2023-05-10T01:24:04;13.80;;;8.30;;
5303;SDS011;2674;49.722;10.892;2023-05-10T01:29:43;7.70;;;6.77;;
5303;SDS011;2674;49.722;10.892;2023-05-10T01:32:50;8.03;;;6.43;;
5303;SDS011;2674;49.722;10.892;2023-05-10T01:35:30;6.80;;;6.10;;
5303;SDS011;2674;49.722;10.892;2023-05-10T01:43:28;8.33;;;6.47;;
5303;SDS011;2674;49.722;10.892;2023-05-10T01:46:00;8.03;;;6.50;;
5303;SDS011;2674;49.722;10.892;2023-05-10T01:48:35;6.63;;;5.97;;
5303;SDS011;2674;49.722;10.892;2023-05-10T01:51:11;10.43;;;6.53;;
5303;SDS011;2674;49.722;10.892;2023-05-10T01:53:38;9.33;;;6.30;;
5303;SDS011;2674;49.722;10.892;2023-05-10T01:56:06;7.77;;;6.33;;
5303;SDS011;2674;49.722;10.892;2023-05-10T01:58:34;7.77;;;6.40;;
5303;SDS011;2674;49.722;10.892;2023-05-10T02:01:03;7.33;;;6.57;;
5303;SDS011;2674;49.722;10.892;2023-05-10T02:03:29;6.47;;;5.87;;
5303;SDS011;2674;49.722;10.892;2023-05-10T02:05:57;8.83;;;5.90;;
5303;SDS011;2674;49.722;10.892;2023-05-10T02:08:23;6.87;;;6.17;;
5303;SDS011;2674;49.722;10.892;2023-05-10T02:10:50;6.40;;;5.60;;
5303;SDS011;2674;49.722;10.892;2023-05-10T02:13:18;6.03;;;5.20;;
5303;SDS011;2674;49.722;10.892;2023-05-10T02:15:46;8.17;;;5.17;;
5303;SDS011;2674;49.722;10.892;2023-05-10T02:18:13;7.27;;;5.83;;
5303;SDS011;2674;49.722;10.892;2023-05-10T02:20:41;6.53;;;5.93;;
5303;SDS011;2674;49.722;10.892;2023-05-10T02:23:09;6.40;;;5.53;;
5303;SDS011;2674;49.722;10.892;2023-05-10T02:25:36;5.33;;;4.80;;
5303;SDS011;2674;49.722;10.892;2023-05-10T02:28:04;7.10;;;5.37;;
5303;SDS011;2674;49.722;10.892;2023-05-10T02:30:31;7.67;;;5.93;;
5303;SDS011;2674;49.722;10.892;2023-05-10T02:32:59;9.63;;;6.10;;
5303;SDS011;2674;49.722;10.892;2023-05-10T02:35:27;6.10;;;4.50;;
5303;SDS011;2674;49.722;10.892;2023-05-10T02:37:53;3.30;;;3.00;;
5303;SDS011;2674;49.722;10.892;2023-05-10T02:40:20;3.90;;;3.50;;
5303;SDS011;2674;49.722;10.892;2023-05-10T02:42:48;4.20;;;3.40;;
5303;SDS011;2674;49.722;10.892;2023-05-10T02:45:18;3.30;;;2.60;;
5303;SDS011;2674;49.722;10.892;2023-05-10T02:47:47;3.83;;;2.97;;
5303;SDS011;2674;49.722;10.892;2023-05-10T02:50:13;2.53;;;2.30;;
5303;SDS011;2674;49.722;10.892;2023-05-10T02:52:41;2.37;;;2.27;;
5303;SDS011;2674;49.722;10.892;2023-05-10T02:55:11;3.27;;;1.93;;
5303;SDS011;2674;49.722;10.892;2023-05-10T02:57:41;2.70;;;1.50;;
5303;SDS011;2674;49.722;10.892;2023-05-10T03:00:13;2.00;;;1.90;;
5303;SDS011;2674;49.722;10.892;2023-05-10T03:05:32;1.37;;;1.37;;
5303;SDS011;2674;49.722;10.892;2023-05-10T03:07:58;1.60;;;1.47;;
5303;SDS011;2674;49.722;10.892;2023-05-10T03:10:27;1.90;;;1.33;;
5303;SDS011;2674;49.722;10.892;2023-05-10T03:16:12;1.90;;;1.80;;
5303;SDS011;2674;49.722;10.892;2023-05-10T03:18:49;1.80;;;1.70;;
5303;SDS011;2674;49.722;10.892;2023-05-10T03:21:22;1.30;;;1.30;;
5303;SDS011;2674;49.722;10.892;2023-05-10T03:23:53;2.00;;;1.30;;
5303;SDS011;2674;49.722;10.892;2023-05-10T03:26:24;1.90;;;1.53;;
5303;SDS011;2674;49.722;10.892;2023-05-10T03:28:52;1.50;;;1.40;;
5303;SDS011;2674;49.722;10.892;2023-05-10T03:31:19;1.57;;;1.53;;
5303;SDS011;2674;49.722;10.892;2023-05-10T03:33:46;1.63;;;1.50;;
5303;SDS011;2674;49.722;10.892;2023-05-10T03:36:13;1.77;;;1.67;;
5303;SDS011;2674;49.722;10.892;2023-05-10T03:38:39;1.50;;;1.40;;
5303;SDS011;2674;49.722;10.892;2023-05-10T03:41:05;1.37;;;1.20;;
5303;SDS011;2674;49.722;10.892;2023-05-10T03:43:31;1.00;;;1.00;;
5303;SDS011;2674;49.722;10.892;2023-05-10T03:45:56;2.40;;;1.57;;
5303;SDS011;2674;49.722;10.892;2023-05-10T03:48:22;1.87;;;1.77;;
5303;SDS011;2674;49.722;10.892;2023-05-10T03:50:48;2.93;;;2.73;;
5303;SDS011;2674;49.722;10.892;2023-05-10T03:53:14;1.60;;;1.43;;
5303;SDS011;2674;49.722;10.892;2023-05-10T03:55:40;2.10;;;1.80;;
5303;SDS011;2674;49.722;10.892;2023-05-10T03:58:06;3.90;;;1.70;;
5303;SDS011;2674;49.722;10.892;2023-05-10T04:00:35;1.50;;;1.50;;
5303;SDS011;2674;49.722;10.892;2023-05-10T04:03:01;2.00;;;1.80;;
5303;SDS011;2674;49.722;10.892;2023-05-10T04:05:26;2.03;;;1.60;;
5303;SDS011;2674;49.722;10.892;2023-05-10T04:07:52;6.83;;;1.97;;
5303;SDS011;2674;49.722;10.892;2023-05-10T04:10:18;6.00;;;1.77;;
5303;SDS011;2674;49.722;10.892;2023-05-10T04:12:44;3.53;;;1.57;;
5303;SDS011;2674;49.722;10.892;2023-05-10T04:15:10;1.40;;;1.30;;
5303;SDS011;2674;49.722;10.892;2023-05-10T04:17:35;1.63;;;1.53;;
5303;SDS011;2674;49.722;10.892;2023-05-10T04:20:02;1.20;;;1.20;;
5303;SDS011;2674;49.722;10.892;2023-05-10T04:22:29;1.53;;;1.43;;
5303;SDS011;2674;49.722;10.892;2023-05-10T04:24:55;1.10;;;1.10;;
5303;SDS011;2674;49.722;10.892;2023-05-10T04:27:21;1.33;;;1.23;;
5303;SDS011;2674;49.722;10.892;2023-05-10T04:29:47;2.10;;;1.03;;
5303;SDS011;2674;49.722;10.892;2023-05-10T04:32:13;1.23;;;1.23;;
5303;SDS011;2674;49.722;10.892;2023-05-10T04:34:41;0.93;;;0.93;;
5303;SDS011;2674;49.722;10.892;2023-05-10T04:37:07;1.40;;;1.40;;
5303;SDS011;2674;49.722;10.892;2023-05-10T04:39:32;0.90;;;0.90;;
5303;SDS011;2674;49.722;10.892;2023-05-10T04:42:00;1.70;;;1.30;;
5303;SDS011;2674;49.722;10.892;2023-05-10T04:44:28;1.17;;;1.17;;
5303;SDS011;2674;49.722;10.892;2023-05-10T04:46:54;0.83;;;0.83;;
5303;SDS011;2674;49.722;10.892;2023-05-10T04:49:20;1.53;;;1.47;;
5303;SDS011;2674;49.722;10.892;2023-05-10T04:51:46;1.07;;;0.97;;
5303;SDS011;2674;49.722;10.892;2023-05-10T04:54:12;0.90;;;0.90;;
5303;SDS011;2674;49.722;10.892;2023-05-10T04:56:38;0.90;;;0.90;;
5303;SDS011;2674;49.722;10.892;2023-05-10T04:59:04;1.03;;;1.03;;
5303;SDS011;2674;49.722;10.892;2023-05-10T05:01:29;0.90;;;0.90;;
5303;SDS011;2674;49.722;10.892;2023-05-10T05:03:55;1.70;;;0.80;;
5303;SDS011;2674;49.722;10.892;2023-05-10T05:06:21;0.80;;;0.80;;
5303;SDS011;2674;49.722;10.892;2023-05-10T05:08:47;1.10;;;1.10;;
5303;SDS011;2674;49.722;10.892;2023-05-10T05:11:14;0.70;;;0.70;;
5303;SDS011;2674;49.722;10.892;2023-05-10T05:13:40;0.90;;;0.90;;
5303;SDS011;2674;49.722;10.892;2023-05-10T05:16:05;1.00;;;1.00;;
5303;SDS011;2674;49.722;10.892;2023-05-10T05:18:31;1.20;;;1.10;;
5303;SDS011;2674;49.722;10.892;2023-05-10T05:20:57;3.23;;;1.00;;
5303;SDS011;2674;49.722;10.892;2023-05-10T05:23:23;2.30;;;1.00;;
5303;SDS011;2674;49.722;10.892;2023-05-10T05:25:51;0.90;;;0.90;;
5303;SDS011;2674;49.722;10.892;2023-05-10T05:28:17;1.03;;;1.03;;
5303;SDS011;2674;49.722;10.892;2023-05-10T05:30:44;1.07;;;1.07;;
5303;SDS011;2674;49.722;10.892;2023-05-10T05:33:10;0.83;;;0.80;;
5303;SDS011;2674;49.722;10.892;2023-05-10T05:35:36;1.10;;;1.10;;
5303;SDS011;2674;49.722;10.892;2023-05-10T05:38:02;1.27;;;1.10;;
5303;SDS011;2674;49.722;10.892;2023-05-10T05:40:28;1.20;;;1.10;;
5303;SDS011;2674;49.722;10.892;2023-05-10T05:42:53;0.77;;;0.77;;
5303;SDS011;2674;49.722;10.892;2023-05-10T05:45:19;1.20;;;1.20;;
5303;SDS011;2674;49.722;10.892;2023-05-10T05:47:46;1.20;;;1.20;;
5303;SDS011;2674;49.722;10.892;2023-05-10T05:50:12;1.30;;;1.30;;
5303;SDS011;2674;49.722;10.892;2023-05-10T05:52:38;1.40;;;1.40;;
5303;SDS011;2674;49.722;10.892;2023-05-10T05:55:04;1.10;;;1.10;;
5303;SDS011;2674;49.722;10.892;2023-05-10T05:57:30;1.47;;;1.47;;
5303;SDS011;2674;49.722;10.892;2023-05-10T05:59:56;1.50;;;1.40;;
5303;SDS011;2674;49.722;10.892;2023-05-10T06:02:21;1.37;;;1.37;;
5303;SDS011;2674;49.722;10.892;2023-05-10T06:04:48;1.40;;;1.30;;
5303;SDS011;2674;49.722;10.892;2023-05-10T06:07:15;1.13;;;1.03;;
5303;SDS011;2674;49.722;10.892;2023-05-10T06:09:41;1.60;;;1.53;;
5303;SDS011;2674;49.722;10.892;2023-05-10T06:12:07;1.60;;;1.60;;
5303;SDS011;2674;49.722;10.892;2023-05-10T06:14:33;1.47;;;1.37;;
5303;SDS011;2674;49.722;10.892;2023-05-10T06:16:58;2.50;;;1.70;;
5303;SDS011;2674;49.722;10.892;2023-05-10T06:19:25;1.30;;;1.30;;
5303;SDS011;2674;49.722;10.892;2023-05-10T06:21:51;1.50;;;1.40;;
5303;SDS011;2674;49.722;10.892;2023-05-10T06:24:17;1.40;;;1.30;;
5303;SDS011;2674;49.722;10.892;2023-05-10T06:26:43;1.33;;;1.33;;
5303;SDS011;2674;49.722;10.892;2023-05-10T06:29:08;1.50;;;1.50;;
5303;SDS011;2674;49.722;10.892;2023-05-10T06:31:34;1.37;;;1.33;;
5303;SDS011;2674;49.722;10.892;2023-05-10T06:34:00;5.83;;;1.50;;
5303;SDS011;2674;49.722;10.892;2023-05-10T06:36:26;1.13;;;1.07;;
5303;SDS011;2674;49.722;10.892;2023-05-10T06:38:52;1.27;;;1.27;;
5303;SDS011;2674;49.722;10.892;2023-05-10T06:41:18;1.43;;;1.43;;
5303;SDS011;2674;49.722;10.892;2023-05-10T06:43:43;1.67;;;1.57;;
5303;SDS011;2674;49.722;10.892;2023-05-10T06:46:09;1.87;;;1.77;;
5303;SDS011;2674;49.722;10.892;2023-05-10T06:48:35;2.37;;;1.47;;
5303;SDS011;2674;49.722;10.892;2023-05-10T06:51:01;1.63;;;1.40;;
5303;SDS011;2674;49.722;10.892;2023-05-10T06:53:27;4.87;;;1.50;;
5303;SDS011;2674;49.722;10.892;2023-05-10T06:55:52;4.83;;;1.40;;
5303;SDS011;2674;49.722;10.892;2023-05-10T06:58:18;1.57;;;1.40;;
5303;SDS011;2674;49.722;10.892;2023-05-10T07:00:44;1.40;;;1.40;;
5303;SDS011;2674;49.722;10.892;2023-05-10T07:03:11;1.30;;;1.20;;
5303;SDS011;2674;49.722;10.892;2023-05-10T07:05:37;1.70;;;1.57;;
5303;SDS011;2674;49.722;10.892;2023-05-10T07:08:03;1.53;;;1.33;;
5303;SDS011;2674;49.722;10.892;2023-05-10T07:10:29;5.47;;;1.30;;
5303;SDS011;2674;49.722;10.892;2023-05-10T07:12:54;1.00;;;1.00;;
5303;SDS011;2674;49.722;10.892;2023-05-10T07:15:20;0.93;;;0.93;;
5303;SDS011;2674;49.722;10.892;2023-05-10T07:17:46;2.37;;;1.13;;
5303;SDS011;2674;49.722;10.892;2023-05-10T07:20:12;0.93;;;0.90;;
5303;SDS011;2674;49.722;10.892;2023-05-10T07:22:38;2.67;;;1.03;;
5303;SDS011;2674;49.722;10.892;2023-05-10T07:25:04;0.90;;;0.90;;
5303;SDS011;2674;49.722;10.892;2023-05-10T07:27:30;1.90;;;1.80;;
5303;SDS011;2674;49.722;10.892;2023-05-10T07:29:56;20.83;;;3.10;;
5303;SDS011;2674;49.722;10.892;2023-05-10T07:32:21;2.20;;;0.80;;
5303;SDS011;2674;49.722;10.892;2023-05-10T07:34:47;0.97;;;0.97;;
5303;SDS011;2674;49.722;10.892;2023-05-10T07:37:13;5.40;;;0.80;;
5303;SDS011;2674;49.722;10.892;2023-05-10T07:39:39;1.63;;;0.90;;
5303;SDS011;2674;49.722;10.892;2023-05-10T07:42:05;0.90;;;0.90;;
5303;SDS011;2674;49.722;10.892;2023-05-10T07:44:31;0.90;;;0.90;;
5303;SDS011;2674;49.722;10.892;2023-05-10T07:46:57;1.17;;;1.07;;
5303;SDS011;2674;49.722;10.892;2023-05-10T07:49:22;0.87;;;0.87;;
5303;SDS011;2674;49.722;10.892;2023-05-10T07:51:49;0.80;;;0.80;;
5303;SDS011;2674;49.722;10.892;2023-05-10T07:54:15;2.97;;;1.20;;
5303;SDS011;2674;49.722;10.892;2023-05-10T07:56:40;0.80;;;0.80;;
5303;SDS011;2674;49.722;10.892;2023-05-10T07:59:14;1.27;;;1.03;;
5303;SDS011;2674;49.722;10.892;2023-05-10T08:01:41;0.73;;;0.73;;
5303;SDS011;2674;49.722;10.892;2023-05-10T08:04:07;0.83;;;0.83;;
5303;SDS011;2674;49.722;10.892;2023-05-10T08:06:33;0.90;;;0.90;;
5303;SDS011;2674;49.722;10.892;2023-05-10T08:08:59;3.13;;;1.50;;
5303;SDS011;2674;49.722;10.892;2023-05-10T08:11:25;1.13;;;1.13;;
5303;SDS011;2674;49.722;10.892;2023-05-10T08:13:52;1.20;;;1.10;;
5303;SDS011;2674;49.722;10.892;2023-05-10T08:16:19;2.03;;;1.17;;
5303;SDS011;2674;49.722;10.892;2023-05-10T08:18:45;1.10;;;1.10;;
5303;SDS011;2674;49.722;10.892;2023-05-10T08:21:12;1.30;;;1.20;;
5303;SDS011;2674;49.722;10.892;2023-05-10T08:23:38;1.77;;;1.67;;
5303;SDS011;2674;49.722;10.892;2023-05-10T08:26:04;1.43;;;1.33;;
5303;SDS011;2674;49.722;10.892;2023-05-10T08:28:30;1.90;;;1.80;;
5303;SDS011;2674;49.722;10.892;2023-05-10T08:30:56;1.70;;;1.60;;
5303;SDS011;2674;49.722;10.892;2023-05-10T08:33:22;1.93;;;1.77;;
5303;SDS011;2674;49.722;10.892;2023-05-10T08:35:48;1.67;;;1.50;;
5303;SDS011;2674;49.722;10.892;2023-05-10T08:38:14;2.50;;;1.87;;
5303;SDS011;2674;49.722;10.892;2023-05-10T08:40:43;1.80;;;1.70;;
5303;SDS011;2674;49.722;10.892;2023-05-10T08:43:10;3.90;;;1.93;;
5303;SDS011;2674;49.722;10.892;2023-05-10T08:45:44;2.53;;;2.33;;
5303;SDS011;2674;49.722;10.892;2023-05-10T08:48:13;2.03;;;1.80;;
5303;SDS011;2674;49.722;10.892;2023-05-10T08:50:41;1.73;;;1.63;;
5303;SDS011;2674;49.722;10.892;2023-05-10T08:53:11;1.53;;;1.43;;
5303;SDS011;2674;49.722;10.892;2023-05-10T08:55:38;1.97;;;1.60;;
5303;SDS011;2674;49.722;10.892;2023-05-10T08:58:07;1.63;;;1.40;;
5303;SDS011;2674;49.722;10.892;2023-05-10T09:00:34;2.60;;;1.80;;
5303;SDS011;2674;49.722;10.892;2023-05-10T09:03:02;1.60;;;1.50;;
5303;SDS011;2674;49.722;10.892;2023-05-10T09:05:28;2.17;;;1.80;;
5303;SDS011;2674;49.722;10.892;2023-05-10T09:07:54;2.93;;;1.80;;
5303;SDS011;2674;49.722;10.892;2023-05-10T09:10:20;2.53;;;1.70;;
5303;SDS011;2674;49.722;10.892;2023-05-10T09:12:47;2.00;;;1.90;;
5303;SDS011;2674;49.722;10.892;2023-05-10T09:15:15;1.70;;;1.60;;
5303;SDS011;2674;49.722;10.892;2023-05-10T09:17:44;2.30;;;2.10;;
5303;SDS011;2674;49.722;10.892;2023-05-10T09:20:11;7.60;;;1.60;;
5303;SDS011;2674;49.722;10.892;2023-05-10T09:22:36;2.53;;;1.80;;
5303;SDS011;2674;49.722;10.892;2023-05-10T09:25:04;8.80;;;1.90;;
5303;SDS011;2674;49.722;10.892;2023-05-10T09:27:31;4.73;;;1.70;;
5303;SDS011;2674;49.722;10.892;2023-05-10T09:29:57;5.00;;;1.67;;
5303;SDS011;2674;49.722;10.892;2023-05-10T09:32:43;1.70;;;1.60;;
5303;SDS011;2674;49.722;10.892;2023-05-10T09:35:17;1.90;;;1.80;;
5303;SDS011;2674;49.722;10.892;2023-05-10T09:37:45;1.47;;;1.40;;
5303;SDS011;2674;49.722;10.892;2023-05-10T09:40:19;5.17;;;1.57;;
5303;SDS011;2674;49.722;10.892;2023-05-10T09:42:59;2.20;;;1.10;;
5303;SDS011;2674;49.722;10.892;2023-05-10T09:45:31;1.10;;;1.10;;
5303;SDS011;2674;49.722;10.892;2023-05-10T09:47:59;3.53;;;1.10;;
5303;SDS011;2674;49.722;10.892;2023-05-10T09:50:27;3.63;;;1.20;;
5303;SDS011;2674;49.722;10.892;2023-05-10T09:55:24;2.20;;;1.30;;
5303;SDS011;2674;49.722;10.892;2023-05-10T09:58:00;2.10;;;1.50;;
5303;SDS011;2674;49.722;10.892;2023-05-10T10:00:27;1.23;;;1.13;;
5303;SDS011;2674;49.722;10.892;2023-05-10T10:02:59;1.20;;;1.10;;
5303;SDS011;2674;49.722;10.892;2023-05-10T10:05:30;4.70;;;1.50;;
5303;SDS011;2674;49.722;10.892;2023-05-10T10:08:01;1.13;;;1.03;;
5303;SDS011;2674;49.722;10.892;2023-05-10T10:10:29;1.23;;;1.00;;
5303;SDS011;2674;49.722;10.892;2023-05-10T10:12:57;0.80;;;0.80;;
5303;SDS011;2674;49.722;10.892;2023-05-10T10:15:23;1.23;;;0.90;;
5303;SDS011;2674;49.722;10.892;2023-05-10T10:17:50;1.40;;;1.30;;
5303;SDS011;2674;49.722;10.892;2023-05-10T10:20:18;1.20;;;1.10;;
5303;SDS011;2674;49.722;10.892;2023-05-10T10:22:44;8.47;;;1.70;;
5303;SDS011;2674;49.722;10.892;2023-05-10T10:25:12;1.50;;;1.03;;
5303;SDS011;2674;49.722;10.892;2023-05-10T10:35:31;0.80;;;0.80;;
5303;SDS011;2674;49.722;10.892;2023-05-10T10:37:58;3.43;;;0.70;;
5303;SDS011;2674;49.722;10.892;2023-05-10T10:40:25;1.13;;;1.03;;
5303;SDS011;2674;49.722;10.892;2023-05-10T10:42:52;1.93;;;1.10;;
5303;SDS011;2674;49.722;10.892;2023-05-10T10:45:19;0.90;;;0.90;;
5303;SDS011;2674;49.722;10.892;2023-05-10T10:47:45;1.40;;;1.30;;
5303;SDS011;2674;49.722;10.892;2023-05-10T10:50:11;1.07;;;1.07;;
5303;SDS011;2674;49.722;10.892;2023-05-10T10:52:41;1.80;;;1.00;;
5303;SDS011;2674;49.722;10.892;2023-05-10T10:57:52;3.30;;;1.37;;
5303;SDS011;2674;49.722;10.892;2023-05-10T11:00:28;1.23;;;1.23;;
5303;SDS011;2674;49.722;10.892;2023-05-10T11:03:11;1.40;;;1.30;;
5303;SDS011;2674;49.722;10.892;2023-05-10T11:05:47;1.20;;;1.10;;
5303;SDS011;2674;49.722;10.892;2023-05-10T11:08:27;1.90;;;1.30;;
5303;SDS011;2674;49.722;10.892;2023-05-10T11:14:02;4.90;;;1.60;;
5303;SDS011;2674;49.722;10.892;2023-05-10T11:16:27;2.57;;;1.30;;
5303;SDS011;2674;49.722;10.892;2023-05-10T11:21:21;3.80;;;1.10;;
5303;SDS011;2674;49.722;10.892;2023-05-10T11:23:54;1.93;;;1.00;;
5303;SDS011;2674;49.722;10.892;2023-05-10T11:26:22;1.63;;;1.53;;
5303;SDS011;2674;49.722;10.892;2023-05-10T11:28:55;5.53;;;1.83;;
5303;SDS011;2674;49.722;10.892;2023-05-10T11:31:21;2.67;;;2.40;;
5303;SDS011;2674;49.722;10.892;2023-05-10T11:33:52;1.90;;;1.50;;
5303;SDS011;2674;49.722;10.892;2023-05-10T11:36:28;2.00;;;1.80;;
5303;SDS011;2674;49.722;10.892;2023-05-10T11:38:58;1.10;;;1.10;;
5303;SDS011;2674;49.722;10.892;2023-05-10T11:41:24;1.33;;;1.23;;
5303;SDS011;2674;49.722;10.892;2023-05-10T11:43:52;2.90;;;1.77;;
5303;SDS011;2674;49.722;10.892;2023-05-10T11:46:19;1.83;;;1.20;;
5303;SDS011;2674;49.722;10.892;2023-05-10T11:48:49;2.67;;;2.03;;
5303;SDS011;2674;49.722;10.892;2023-05-10T11:51:23;5.63;;;1.57;;
5303;SDS011;2674;49.722;10.892;2023-05-10T11:53:50;2.70;;;1.50;;
5303;SDS011;2674;49.722;10.892;2023-05-10T11:56:18;1.43;;;1.10;;
5303;SDS011;2674;49.722;10.892;2023-05-10T11:58:52;6.87;;;1.60;;
5303;SDS011;2674;49.722;10.892;2023-05-10T12:01:22;4.03;;;1.67;;
5303;SDS011;2674;49.722;10.892;2023-05-10T12:03:51;2.10;;;1.70;;
5303;SDS011;2674;49.722;10.892;2023-05-10T12:06:19;1.20;;;1.10;;
5303;SDS011;2674;49.722;10.892;2023-05-10T12:08:46;3.40;;;1.27;;
5303;SDS011;2674;49.722;10.892;2023-05-10T12:11:12;2.30;;;1.47;;
5303;SDS011;2674;49.722;10.892;2023-05-10T12:13:40;2.20;;;1.30;;
5303;SDS011;2674;49.722;10.892;2023-05-10T12:18:43;2.30;;;1.07;;
5303;SDS011;2674;49.722;10.892;2023-05-10T12:21:11;2.70;;;1.50;;
5303;SDS011;2674;49.722;10.892;2023-05-10T12:23:38;2.57;;;1.20;;
5303;SDS011;2674;49.722;10.892;2023-05-10T12:26:04;1.90;;;1.17;;
5303;SDS011;2674;49.722;10.892;2023-05-10T12:28:31;2.33;;;1.10;;
5303;SDS011;2674;49.722;10.892;2023-05-10T12:30:57;1.50;;;1.40;;
5303;SDS011;2674;49.722;10.892;2023-05-10T12:33:24;2.03;;;1.83;;
5303;SDS011;2674;49.722;10.892;2023-05-10T12:35:51;3.33;;;1.73;;
5303;SDS011;2674;49.722;10.892;2023-05-10T12:41:12;1.90;;;1.80;;
5303;SDS011;2674;49.722;10.892;2023-05-10T12:43:42;1.97;;;1.83;;
5303;SDS011;2674;49.722;10.892;2023-05-10T12:46:09;1.70;;;1.60;;
5303;SDS011;2674;49.722;10.892;2023-05-10T12:48:39;3.07;;;1.40;;
5303;SDS011;2674;49.722;10.892;2023-05-10T12:51:06;2.30;;;1.30;;
5303;SDS011;2674;49.722;10.892;2023-05-10T12:53:37;1.50;;;1.40;;
5303;SDS011;2674;49.722;10.892;2023-05-10T12:56:03;2.03;;;1.10;;
5303;SDS011;2674;49.722;10.892;2023-05-10T12:58:30;2.10;;;1.10;;
5303;SDS011;2674;49.722;10.892;2023-05-10T13:00:57;2.07;;;1.90;;
5303;SDS011;2674;49.722;10.892;2023-05-10T13:03:23;6.50;;;1.60;;
5303;SDS011;2674;49.722;10.892;2023-05-10T13:05:49;2.30;;;1.07;;
5303;SDS011;2674;49.722;10.892;2023-05-10T13:08:15;1.03;;;1.03;;
5303;SDS011;2674;49.722;10.892;2023-05-10T13:10:41;2.60;;;1.20;;
5303;SDS011;2674;49.722;10.892;2023-05-10T13:13:07;2.20;;;1.20;;
5303;SDS011;2674;49.722;10.892;2023-05-10T13:15:33;2.07;;;0.93;;
5303;SDS011;2674;49.722;10.892;2023-05-10T13:17:59;1.40;;;1.30;;
5303;SDS011;2674;49.722;10.892;2023-05-10T13:20:25;1.33;;;1.23;;
5303;SDS011;2674;49.722;10.892;2023-05-10T13:22:52;2.70;;;1.20;;
5303;SDS011;2674;49.722;10.892;2023-05-10T13:25:18;1.77;;;1.53;;
5303;SDS011;2674;49.722;10.892;2023-05-10T13:27:44;2.03;;;1.20;;
5303;SDS011;2674;49.722;10.892;2023-05-10T13:30:10;3.67;;;3.00;;
5303;SDS011;2674;49.722;10.892;2023-05-10T13:32:38;1.40;;;1.30;;
5303;SDS011;2674;49.722;10.892;2023-05-10T13:35:04;1.40;;;1.30;;
5303;SDS011;2674;49.722;10.892;2023-05-10T13:37:31;2.10;;;1.47;;
5303;SDS011;2674;49.722;10.892;2023-05-10T13:40:00;1.67;;;1.57;;
5303;SDS011;2674;49.722;10.892;2023-05-10T13:42:26;38.23;;;23.90;;
5303;SDS011;2674;49.722;10.892;2023-05-10T13:44:52;2.17;;;1.97;;
5303;SDS011;2674;49.722;10.892;2023-05-10T13:47:18;5.37;;;1.63;;
5303;SDS011;2674;49.722;10.892;2023-05-10T13:49:44;1.20;;;1.10;;
5303;SDS011;2674;49.722;10.892;2023-05-10T13:52:09;8.23;;;2.20;;
5303;SDS011;2674;49.722;10.892;2023-05-10T13:54:36;4.00;;;1.47;;
5303;SDS011;2674;49.722;10.892;2023-05-10T13:57:03;2.93;;;2.67;;
5303;SDS011;2674;49.722;10.892;2023-05-10T13:59:29;2.13;;;1.47;;
5303;SDS011;2674;49.722;10.892;2023-05-10T14:01:59;3.20;;;2.30;;
5303;SDS011;2674;49.722;10.892;2023-05-10T14:04:25;3.30;;;1.83;;
5303;SDS011;2674;49.722;10.892;2023-05-10T14:06:51;1.93;;;1.30;;
5303;SDS011;2674;49.722;10.892;2023-05-10T14:09:18;1.40;;;1.33;;
5303;SDS011;2674;49.722;10.892;2023-05-10T14:11:44;1.33;;;1.23;;
5303;SDS011;2674;49.722;10.892;2023-05-10T14:14:10;1.10;;;1.10;;
5303;SDS011;2674;49.722;10.892;2023-05-10T14:16:36;1.97;;;1.20;;
5303;SDS011;2674;49.722;10.892;2023-05-10T14:19:02;4.20;;;1.87;;
5303;SDS011;2674;49.722;10.892;2023-05-10T14:27:25;1.40;;;1.30;;
5303;SDS011;2674;49.722;10.892;2023-05-10T14:29:51;5.60;;;2.57;;
5303;SDS011;2674;49.722;10.892;2023-05-10T14:32:18;0.90;;;0.90;;
5303;SDS011;2674;49.722;10.892;2023-05-10T14:34:44;1.10;;;1.10;;
5303;SDS011;2674;49.722;10.892;2023-05-10T14:37:10;2.50;;;1.77;;
5303;SDS011;2674;49.722;10.892;2023-05-10T14:39:37;2.00;;;1.73;;
5303;SDS011;2674;49.722;10.892;2023-05-10T14:44:38;1.90;;;1.10;;
5303;SDS011;2674;49.722;10.892;2023-05-10T14:47:04;1.97;;;1.30;;
5303;SDS011;2674;49.722;10.892;2023-05-10T14:49:30;1.40;;;1.40;;
5303;SDS011;2674;49.722;10.892;2023-05-10T14:51:56;2.63;;;1.00;;
5303;SDS011;2674;49.722;10.892;2023-05-10T14:54:22;3.00;;;1.17;;
5303;SDS011;2674;49.722;10.892;2023-05-10T14:56:48;2.80;;;1.73;;
5303;SDS011;2674;49.722;10.892;2023-05-10T14:59:15;2.53;;;1.27;;
5303;SDS011;2674;49.722;10.892;2023-05-10T15:01:41;1.27;;;1.17;;
5303;SDS011;2674;49.722;10.892;2023-05-10T15:04:07;1.37;;;1.17;;
5303;SDS011;2674;49.722;10.892;2023-05-10T15:06:34;3.97;;;1.33;;
5303;SDS011;2674;49.722;10.892;2023-05-10T15:09:01;1.70;;;1.60;;
5303;SDS011;2674;49.722;10.892;2023-05-10T15:11:28;2.40;;;1.63;;
5303;SDS011;2674;49.722;10.892;2023-05-10T15:13:54;2.47;;;2.27;;
5303;SDS011;2674;49.722;10.892;2023-05-10T15:16:20;2.80;;;1.57;;
5303;SDS011;2674;49.722;10.892;2023-05-10T15:18:46;5.80;;;1.47;;
5303;SDS011;2674;49.722;10.892;2023-05-10T15:21:13;1.73;;;1.40;;
5303;SDS011;2674;49.722;10.892;2023-05-10T15:23:39;1.10;;;1.00;;
5303;SDS011;2674;49.722;10.892;2023-05-10T15:26:05;1.80;;;1.30;;
5303;SDS011;2674;49.722;10.892;2023-05-10T15:28:32;1.93;;;1.53;;
5303;SDS011;2674;49.722;10.892;2023-05-10T15:30:59;1.53;;;1.23;;
5303;SDS011;2674;49.722;10.892;2023-05-10T15:33:25;3.50;;;1.97;;
5303;SDS011;2674;49.722;10.892;2023-05-10T15:35:52;2.90;;;1.33;;
5303;SDS011;2674;49.722;10.892;2023-05-10T15:38:18;2.40;;;1.67;;
5303;SDS011;2674;49.722;10.892;2023-05-10T15:40:44;1.87;;;1.77;;
5303;SDS011;2674;49.722;10.892;2023-05-10T15:43:10;3.90;;;1.80;;
5303;SDS011;2674;49.722;10.892;2023-05-10T15:45:36;1.60;;;1.53;;
5303;SDS011;2674;49.722;10.892;2023-05-10T15:48:05;3.63;;;2.60;;